sensor_id;sensor_type;location;lat;lon;timestamp;temperature;humidity
26103;DHT22;69760;49.380;8.998;2023-11-21T00:00:13;10.40;99.90
26103;DHT22;69760;49.380;8.998;2023-11-21T00:02:40;10.50;99.90
26103;DHT22;69760;49.380;8.998;2023-11-21T00:05:10;10.50;99.90
26103;DHT22;69760;49.380;8.998;2023-11-21T00:07:37;10.50;99.90
26103;DHT22;69760;49.380;8.998;2023-11-21T00:10:03;10.50;99.90
26103;DHT22;69760;49.380;8.998;2023-11-21T00:12:30;10.50;99.90
26103;DHT22;69760;49.380;8.998;2023-11-21T00:14:57;10.50;99.90
26103;DHT22;69760;49.380;8.998;2023-11-21T00:17:23;10.40;99.90
26103;DHT22;69760;49.380;8.998;2023-11-21T00:19:48;10.40;99.90
26103;DHT22;69760;49.380;8.998;2023-11-21T00:22:14;10.40;99.90
26103;DHT22;69760;49.380;8.998;2023-11-21T00:24:41;10.40;99.90
26103;DHT22;69760;49.380;8.998;2023-11-21T00:27:06;10.40;99.90
26103;DHT22;69760;49.380;8.998;2023-11-21T00:29:32;10.40;99.90
26103;DHT22;69760;49.380;8.998;2023-11-21T00:31:58;10.40;99.90
26103;DHT22;69760;49.380;8.998;2023-11-21T00:34:23;10.50;99.90
26103;DHT22;69760;49.380;8.998;2023-11-21T00:36:49;10.40;99.90
26103;DHT22;69760;49.380;8.998;2023-11-21T00:39:14;10.40;99.90
26103;DHT22;69760;49.380;8.998;2023-11-21T00:41:41;10.40;99.90
26103;DHT22;69760;49.380;8.998;2023-11-21T00:44:07;10.40;99.90
26103;DHT22;69760;49.380;8.998;2023-11-21T00:46:32;10.30;99.90
26103;DHT22;69760;49.380;8.998;2023-11-21T00:48:58;10.30;99.90
26103;DHT22;69760;49.380;8.998;2023-11-21T00:51:24;10.30;99.90
26103;DHT22;69760;49.380;8.998;2023-11-21T00:53:49;10.30;99.90
26103;DHT22;69760;49.380;8.998;2023-11-21T00:56:15;10.20;99.90
26103;DHT22;69760;49.380;8.998;2023-11-21T00:58:41;10.10;99.90
26103;DHT22;69760;49.380;8.998;2023-11-21T01:01:12;10.10;99.90
26103;DHT22;69760;49.380;8.998;2023-11-21T01:03:37;10.10;99.90
26103;DHT22;69760;49.380;8.998;2023-11-21T01:06:03;10.00;99.90
26103;DHT22;69760;49.380;8.998;2023-11-21T01:08:32;10.00;99.90
26103;DHT22;69760;49.380;8.998;2023-11-21T01:10:58;10.10;99.90
26103;DHT22;69760;49.380;8.998;2023-11-21T01:13:23;10.00;99.90
26103;DHT22;69760;49.380;8.998;2023-11-21T01:15:49;10.10;99.90
26103;DHT22;69760;49.380;8.998;2023-11-21T01:18:14;10.00;99.90
26103;DHT22;69760;49.380;8.998;2023-11-21T01:20:40;10.00;99.90
26103;DHT22;69760;49.380;8.998;2023-11-21T01:23:06;10.00;99.90
26103;DHT22;69760;49.380;8.998;2023-11-21T01:25:31;10.00;99.90
26103;DHT22;69760;49.380;8.998;2023-11-21T01:27:57;10.00;99.90
26103;DHT22;69760;49.380;8.998;2023-11-21T01:30:22;10.00;99.90
26103;DHT22;69760;49.380;8.998;2023-11-21T01:32:48;10.00;99.90
26103;DHT22;69760;49.380;8.998;2023-11-21T01:35:13;10.10;99.90
26103;DHT22;69760;49.380;8.998;2023-11-21T01:37:39;10.00;99.90
26103;DHT22;69760;49.380;8.998;2023-11-21T01:40:05;10.00;99.90
26103;DHT22;69760;49.380;8.998;2023-11-21T01:42:35;10.10;99.90
26103;DHT22;69760;49.380;8.998;2023-11-21T01:45:01;10.00;99.90
26103;DHT22;69760;49.380;8.998;2023-11-21T01:47:28;10.10;99.90
26103;DHT22;69760;49.380;8.998;2023-11-21T01:49:55;10.00;99.90
26103;DHT22;69760;49.380;8.998;2023-11-21T01:52:21;10.00;99.90
26103;DHT22;69760;49.380;8.998;2023-11-21T01:54:47;10.10;99.90
26103;DHT22;69760;49.380;8.998;2023-11-21T01:57:13;10.10;99.90
26103;DHT22;69760;49.380;8.998;2023-11-21T01:59:41;10.10;99.90
26103;DHT22;69760;49.380;8.998;2023-11-21T02:02:07;10.20;99.90
26103;DHT22;69760;49.380;8.998;2023-11-21T02:04:35;10.20;99.90
26103;DHT22;69760;49.380;8.998;2023-11-21T02:07:04;10.10;99.90
26103;DHT22;69760;49.380;8.998;2023-11-21T02:09:33;10.10;99.90
26103;DHT22;69760;49.380;8.998;2023-11-21T02:11:59;10.10;99.90
26103;DHT22;69760;49.380;8.998;2023-11-21T02:14:26;10.20;99.90
26103;DHT22;69760;49.380;8.998;2023-11-21T02:16:53;10.20;99.90
26103;DHT22;69760;49.380;8.998;2023-11-21T02:19:20;10.20;99.90
26103;DHT22;69760;49.380;8.998;2023-11-21T02:21:52;10.20;99.90
26103;DHT22;69760;49.380;8.998;2023-11-21T02:24:21;10.20;99.90
26103;DHT22;69760;49.380;8.998;2023-11-21T02:26:48;10.20;99.90
26103;DHT22;69760;49.380;8.998;2023-11-21T02:29:14;10.20;99.90
26103;DHT22;69760;49.380;8.998;2023-11-21T02:31:43;10.20;99.90
26103;DHT22;69760;49.380;8.998;2023-11-21T02:34:17;10.20;99.90
26103;DHT22;69760;49.380;8.998;2023-11-21T02:36:44;10.20;99.90
26103;DHT22;69760;49.380;8.998;2023-11-21T02:39:10;10.10;99.90
26103;DHT22;69760;49.380;8.998;2023-11-21T02:41:37;10.20;99.90
26103;DHT22;69760;49.380;8.998;2023-11-21T02:44:05;10.10;99.90
26103;DHT22;69760;49.380;8.998;2023-11-21T02:46:32;10.20;99.90
26103;DHT22;69760;49.380;8.998;2023-11-21T02:49:02;10.10;99.90
26103;DHT22;69760;49.380;8.998;2023-11-21T02:51:28;10.20;99.90
26103;DHT22;69760;49.380;8.998;2023-11-21T02:53:54;10.20;99.90
26103;DHT22;69760;49.380;8.998;2023-11-21T02:56:24;10.20;99.90
26103;DHT22;69760;49.380;8.998;2023-11-21T02:58:50;10.20;99.90
26103;DHT22;69760;49.380;8.998;2023-11-21T03:01:15;10.30;99.90
26103;DHT22;69760;49.380;8.998;2023-11-21T03:03:42;10.20;99.90
26103;DHT22;69760;49.380;8.998;2023-11-21T03:06:07;10.20;99.90
26103;DHT22;69760;49.380;8.998;2023-11-21T03:08:33;10.20;99.90
26103;DHT22;69760;49.380;8.998;2023-11-21T03:10:59;10.20;99.90
26103;DHT22;69760;49.380;8.998;2023-11-21T03:13:25;10.20;99.90
26103;DHT22;69760;49.380;8.998;2023-11-21T03:15:50;10.30;99.90
26103;DHT22;69760;49.380;8.998;2023-11-21T03:18:16;10.30;99.90
26103;DHT22;69760;49.380;8.998;2023-11-21T03:20:43;10.30;99.90
26103;DHT22;69760;49.380;8.998;2023-11-21T03:23:11;10.30;99.90
26103;DHT22;69760;49.380;8.998;2023-11-21T03:25:37;10.20;99.90
26103;DHT22;69760;49.380;8.998;2023-11-21T03:28:02;10.20;99.90
26103;DHT22;69760;49.380;8.998;2023-11-21T03:30:28;10.20;99.90
26103;DHT22;69760;49.380;8.998;2023-11-21T03:32:54;10.20;99.90
26103;DHT22;69760;49.380;8.998;2023-11-21T03:35:19;10.20;99.90
26103;DHT22;69760;49.380;8.998;2023-11-21T03:37:46;10.20;99.90
26103;DHT22;69760;49.380;8.998;2023-11-21T03:40:12;10.20;99.90
26103;DHT22;69760;49.380;8.998;2023-11-21T03:42:38;10.10;99.90
26103;DHT22;69760;49.380;8.998;2023-11-21T03:45:05;10.10;99.90
26103;DHT22;69760;49.380;8.998;2023-11-21T03:47:30;10.00;99.90
26103;DHT22;69760;49.380;8.998;2023-11-21T03:49:56;10.00;99.90
26103;DHT22;69760;49.380;8.998;2023-11-21T03:52:21;10.00;99.90
26103;DHT22;69760;49.380;8.998;2023-11-21T03:54:47;10.00;99.90
26103;DHT22;69760;49.380;8.998;2023-11-21T03:57:12;10.00;99.90
26103;DHT22;69760;49.380;8.998;2023-11-21T03:59:42;10.00;99.90
26103;DHT22;69760;49.380;8.998;2023-11-21T04:02:08;10.00;99.90
26103;DHT22;69760;49.380;8.998;2023-11-21T04:04:34;10.10;99.90
26103;DHT22;69760;49.380;8.998;2023-11-21T04:06:59;10.10;99.90
26103;DHT22;69760;49.380;8.998;2023-11-21T04:09:25;10.20;99.90
26103;DHT22;69760;49.380;8.998;2023-11-21T04:11:51;10.10;99.90
26103;DHT22;69760;49.380;8.998;2023-11-21T04:14:17;10.10;99.90
26103;DHT22;69760;49.380;8.998;2023-11-21T04:16:43;10.20;99.90
26103;DHT22;69760;49.380;8.998;2023-11-21T04:19:08;10.20;99.90
26103;DHT22;69760;49.380;8.998;2023-11-21T04:21:40;10.20;99.90
26103;DHT22;69760;49.380;8.998;2023-11-21T04:24:06;10.20;99.90
26103;DHT22;69760;49.380;8.998;2023-11-21T04:26:32;10.30;99.90
26103;DHT22;69760;49.380;8.998;2023-11-21T04:28:57;10.20;99.90
26103;DHT22;69760;49.380;8.998;2023-11-21T04:31:23;10.20;99.90
26103;DHT22;69760;49.380;8.998;2023-11-21T04:33:49;10.20;99.90
26103;DHT22;69760;49.380;8.998;2023-11-21T04:36:14;10.30;99.90
26103;DHT22;69760;49.380;8.998;2023-11-21T04:38:40;10.30;99.90
26103;DHT22;69760;49.380;8.998;2023-11-21T04:41:07;10.30;99.90
26103;DHT22;69760;49.380;8.998;2023-11-21T04:43:32;10.30;99.90
26103;DHT22;69760;49.380;8.998;2023-11-21T04:45:58;10.30;99.90
26103;DHT22;69760;49.380;8.998;2023-11-21T04:48:23;10.30;99.90
26103;DHT22;69760;49.380;8.998;2023-11-21T04:50:49;10.40;99.90
26103;DHT22;69760;49.380;8.998;2023-11-21T04:53:14;10.40;99.90
26103;DHT22;69760;49.380;8.998;2023-11-21T04:55:40;10.40;99.90
26103;DHT22;69760;49.380;8.998;2023-11-21T04:58:07;10.50;99.90
26103;DHT22;69760;49.380;8.998;2023-11-21T05:00:33;10.50;99.90
26103;DHT22;69760;49.380;8.998;2023-11-21T05:02:59;10.40;99.90
26103;DHT22;69760;49.380;8.998;2023-11-21T05:05:26;10.50;99.90
26103;DHT22;69760;49.380;8.998;2023-11-21T05:07:52;10.40;99.90
26103;DHT22;69760;49.380;8.998;2023-11-21T05:10:19;10.40;99.90
26103;DHT22;69760;49.380;8.998;2023-11-21T05:12:44;10.40;99.90
26103;DHT22;69760;49.380;8.998;2023-11-21T05:15:14;10.30;99.90
26103;DHT22;69760;49.380;8.998;2023-11-21T05:17:40;10.30;99.90
26103;DHT22;69760;49.380;8.998;2023-11-21T05:20:15;10.30;99.90
26103;DHT22;69760;49.380;8.998;2023-11-21T05:22:48;10.30;99.90
26103;DHT22;69760;49.380;8.998;2023-11-21T05:25:14;10.30;99.90
26103;DHT22;69760;49.380;8.998;2023-11-21T05:27:40;10.30;99.90
26103;DHT22;69760;49.380;8.998;2023-11-21T05:30:07;10.40;99.90
26103;DHT22;69760;49.380;8.998;2023-11-21T05:32:37;10.40;99.90
26103;DHT22;69760;49.380;8.998;2023-11-21T05:35:04;10.40;99.90
26103;DHT22;69760;49.380;8.998;2023-11-21T05:37:35;10.40;99.90
26103;DHT22;69760;49.380;8.998;2023-11-21T05:40:01;10.40;99.90
26103;DHT22;69760;49.380;8.998;2023-11-21T05:42:34;10.40;99.90
26103;DHT22;69760;49.380;8.998;2023-11-21T05:45:00;10.40;99.90
26103;DHT22;69760;49.380;8.998;2023-11-21T05:47:40;10.40;99.90
26103;DHT22;69760;49.380;8.998;2023-11-21T05:50:11;10.40;99.90
26103;DHT22;69760;49.380;8.998;2023-11-21T05:52:41;10.50;99.90
26103;DHT22;69760;49.380;8.998;2023-11-21T05:55:08;10.50;99.90
26103;DHT22;69760;49.380;8.998;2023-11-21T05:57:37;10.50;99.90
26103;DHT22;69760;49.380;8.998;2023-11-21T06:00:08;10.50;99.90
26103;DHT22;69760;49.380;8.998;2023-11-21T06:02:40;10.50;99.90
26103;DHT22;69760;49.380;8.998;2023-11-21T06:05:07;10.60;99.90
26103;DHT22;69760;49.380;8.998;2023-11-21T06:07:34;10.60;99.90
26103;DHT22;69760;49.380;8.998;2023-11-21T06:10:01;10.60;99.90
26103;DHT22;69760;49.380;8.998;2023-11-21T06:12:28;10.60;99.90
26103;DHT22;69760;49.380;8.998;2023-11-21T06:14:53;10.60;99.90
26103;DHT22;69760;49.380;8.998;2023-11-21T06:17:19;10.60;99.90
26103;DHT22;69760;49.380;8.998;2023-11-21T06:19:45;10.60;99.90
26103;DHT22;69760;49.380;8.998;2023-11-21T06:22:11;10.60;99.90
26103;DHT22;69760;49.380;8.998;2023-11-21T06:24:37;10.70;99.90
26103;DHT22;69760;49.380;8.998;2023-11-21T06:27:04;10.70;99.90
26103;DHT22;69760;49.380;8.998;2023-11-21T06:29:30;10.60;99.90
26103;DHT22;69760;49.380;8.998;2023-11-21T06:31:56;10.60;99.90
26103;DHT22;69760;49.380;8.998;2023-11-21T06:34:21;10.60;99.90
26103;DHT22;69760;49.380;8.998;2023-11-21T06:36:47;10.50;99.90
26103;DHT22;69760;49.380;8.998;2023-11-21T06:39:12;10.50;99.90
26103;DHT22;69760;49.380;8.998;2023-11-21T06:41:40;10.40;99.90
26103;DHT22;69760;49.380;8.998;2023-11-21T06:44:06;10.40;99.90
26103;DHT22;69760;49.380;8.998;2023-11-21T06:46:31;10.30;99.90
26103;DHT22;69760;49.380;8.998;2023-11-21T06:48:57;10.30;99.90
26103;DHT22;69760;49.380;8.998;2023-11-21T06:51:22;10.40;99.90
26103;DHT22;69760;49.380;8.998;2023-11-21T06:53:48;10.30;99.90
26103;DHT22;69760;49.380;8.998;2023-11-21T06:56:17;10.30;99.90
26103;DHT22;69760;49.380;8.998;2023-11-21T06:58:44;10.30;99.90
26103;DHT22;69760;49.380;8.998;2023-11-21T07:01:11;10.40;99.90
26103;DHT22;69760;49.380;8.998;2023-11-21T07:03:36;10.40;99.90
26103;DHT22;69760;49.380;8.998;2023-11-21T07:06:03;10.40;99.90
26103;DHT22;69760;49.380;8.998;2023-11-21T07:08:29;10.50;99.90
26103;DHT22;69760;49.380;8.998;2023-11-21T07:10:54;10.50;99.90
26103;DHT22;69760;49.380;8.998;2023-11-21T07:13:20;10.50;99.90
26103;DHT22;69760;49.380;8.998;2023-11-21T07:15:47;10.60;99.90
26103;DHT22;69760;49.380;8.998;2023-11-21T07:18:13;10.60;99.90
26103;DHT22;69760;49.380;8.998;2023-11-21T07:20:39;10.60;99.90
26103;DHT22;69760;49.380;8.998;2023-11-21T07:23:04;10.60;99.90
26103;DHT22;69760;49.380;8.998;2023-11-21T07:25:31;10.60;99.90
26103;DHT22;69760;49.380;8.998;2023-11-21T07:27:57;10.60;99.90
26103;DHT22;69760;49.380;8.998;2023-11-21T07:30:23;10.60;99.90
26103;DHT22;69760;49.380;8.998;2023-11-21T07:32:48;10.60;99.90
26103;DHT22;69760;49.380;8.998;2023-11-21T07:35:14;10.60;99.90
26103;DHT22;69760;49.380;8.998;2023-11-21T07:37:40;10.60;99.90
26103;DHT22;69760;49.380;8.998;2023-11-21T07:40:06;10.60;99.90
26103;DHT22;69760;49.380;8.998;2023-11-21T07:42:34;10.60;99.90
26103;DHT22;69760;49.380;8.998;2023-11-21T07:44:59;10.60;99.90
26103;DHT22;69760;49.380;8.998;2023-11-21T07:47:25;10.50;99.90
26103;DHT22;69760;49.380;8.998;2023-11-21T07:49:53;10.50;99.90
26103;DHT22;69760;49.380;8.998;2023-11-21T07:52:18;10.60;99.90
26103;DHT22;69760;49.380;8.998;2023-11-21T07:54:46;10.60;99.90
26103;DHT22;69760;49.380;8.998;2023-11-21T07:57:12;10.60;99.90
26103;DHT22;69760;49.380;8.998;2023-11-21T07:59:39;10.60;99.90
26103;DHT22;69760;49.380;8.998;2023-11-21T08:02:06;10.60;99.90
26103;DHT22;69760;49.380;8.998;2023-11-21T08:04:32;10.60;99.90
26103;DHT22;69760;49.380;8.998;2023-11-21T08:06:58;10.70;99.90
26103;DHT22;69760;49.380;8.998;2023-11-21T08:09:23;10.70;99.90
26103;DHT22;69760;49.380;8.998;2023-11-21T08:11:49;10.70;99.90
26103;DHT22;69760;49.380;8.998;2023-11-21T08:14:16;10.80;99.90
26103;DHT22;69760;49.380;8.998;2023-11-21T08:16:42;10.90;99.90
26103;DHT22;69760;49.380;8.998;2023-11-21T08:19:08;10.90;99.90
26103;DHT22;69760;49.380;8.998;2023-11-21T08:21:34;11.00;99.90
26103;DHT22;69760;49.380;8.998;2023-11-21T08:24:03;11.00;99.90
26103;DHT22;69760;49.380;8.998;2023-11-21T08:26:29;11.00;99.90
26103;DHT22;69760;49.380;8.998;2023-11-21T08:28:55;11.00;99.90
26103;DHT22;69760;49.380;8.998;2023-11-21T08:31:25;11.10;99.90
26103;DHT22;69760;49.380;8.998;2023-11-21T08:33:51;11.10;99.90
26103;DHT22;69760;49.380;8.998;2023-11-21T08:36:17;11.10;99.90
26103;DHT22;69760;49.380;8.998;2023-11-21T08:38:42;11.10;99.90
26103;DHT22;69760;49.380;8.998;2023-11-21T08:41:08;11.10;99.90
26103;DHT22;69760;49.380;8.998;2023-11-21T08:43:35;11.10;99.90
26103;DHT22;69760;49.380;8.998;2023-11-21T08:46:00;11.10;99.90
26103;DHT22;69760;49.380;8.998;2023-11-21T08:48:26;11.10;99.90
26103;DHT22;69760;49.380;8.998;2023-11-21T08:50:53;11.10;99.90
26103;DHT22;69760;49.380;8.998;2023-11-21T08:53:19;11.00;99.90
26103;DHT22;69760;49.380;8.998;2023-11-21T08:55:45;11.00;99.90
26103;DHT22;69760;49.380;8.998;2023-11-21T08:58:11;11.10;99.90
26103;DHT22;69760;49.380;8.998;2023-11-21T09:00:39;11.10;99.90
26103;DHT22;69760;49.380;8.998;2023-11-21T09:03:05;11.20;99.90
26103;DHT22;69760;49.380;8.998;2023-11-21T09:05:37;11.30;99.90
26103;DHT22;69760;49.380;8.998;2023-11-21T09:08:02;11.30;99.90
26103;DHT22;69760;49.380;8.998;2023-11-21T09:10:28;11.20;99.90
26103;DHT22;69760;49.380;8.998;2023-11-21T09:12:53;11.00;99.90
26103;DHT22;69760;49.380;8.998;2023-11-21T09:15:19;10.80;99.90
26103;DHT22;69760;49.380;8.998;2023-11-21T09:17:45;10.80;99.90
26103;DHT22;69760;49.380;8.998;2023-11-21T09:20:11;10.70;99.90
26103;DHT22;69760;49.380;8.998;2023-11-21T09:22:37;10.60;99.90
26103;DHT22;69760;49.380;8.998;2023-11-21T09:25:03;10.60;99.90
26103;DHT22;69760;49.380;8.998;2023-11-21T09:27:32;10.60;99.90
26103;DHT22;69760;49.380;8.998;2023-11-21T09:29:58;10.60;99.90
26103;DHT22;69760;49.380;8.998;2023-11-21T09:32:23;10.60;99.90
26103;DHT22;69760;49.380;8.998;2023-11-21T09:34:49;10.60;99.90
26103;DHT22;69760;49.380;8.998;2023-11-21T09:37:16;10.60;99.90
26103;DHT22;69760;49.380;8.998;2023-11-21T09:39:42;10.70;99.90
26103;DHT22;69760;49.380;8.998;2023-11-21T09:42:12;10.70;99.90
26103;DHT22;69760;49.380;8.998;2023-11-21T09:44:53;10.80;99.90
26103;DHT22;69760;49.380;8.998;2023-11-21T09:47:21;10.80;99.90
26103;DHT22;69760;49.380;8.998;2023-11-21T09:49:48;10.90;99.90
26103;DHT22;69760;49.380;8.998;2023-11-21T09:52:28;11.00;99.90
26103;DHT22;69760;49.380;8.998;2023-11-21T09:54:55;11.00;99.90
26103;DHT22;69760;49.380;8.998;2023-11-21T09:57:24;11.10;99.90
26103;DHT22;69760;49.380;8.998;2023-11-21T09:59:51;11.20;99.90
26103;DHT22;69760;49.380;8.998;2023-11-21T10:02:27;11.20;99.90
26103;DHT22;69760;49.380;8.998;2023-11-21T10:04:55;11.30;99.90
26103;DHT22;69760;49.380;8.998;2023-11-21T10:07:22;11.40;99.90
26103;DHT22;69760;49.380;8.998;2023-11-21T10:09:48;11.40;99.90
26103;DHT22;69760;49.380;8.998;2023-11-21T10:12:15;11.50;99.90
26103;DHT22;69760;49.380;8.998;2023-11-21T10:14:42;11.50;99.90
26103;DHT22;69760;49.380;8.998;2023-11-21T10:17:10;11.50;99.90
26103;DHT22;69760;49.380;8.998;2023-11-21T10:19:38;11.60;99.90
26103;DHT22;69760;49.380;8.998;2023-11-21T10:22:05;11.60;99.90
26103;DHT22;69760;49.380;8.998;2023-11-21T10:24:32;11.70;99.90
26103;DHT22;69760;49.380;8.998;2023-11-21T10:26:58;11.70;99.90
26103;DHT22;69760;49.380;8.998;2023-11-21T10:29:24;11.70;99.90
26103;DHT22;69760;49.380;8.998;2023-11-21T10:31:50;11.70;99.90
26103;DHT22;69760;49.380;8.998;2023-11-21T10:34:18;11.70;99.90
26103;DHT22;69760;49.380;8.998;2023-11-21T10:36:44;11.60;99.90
26103;DHT22;69760;49.380;8.998;2023-11-21T10:39:17;11.60;99.90
26103;DHT22;69760;49.380;8.998;2023-11-21T10:41:47;11.70;99.90
26103;DHT22;69760;49.380;8.998;2023-11-21T10:44:17;11.70;99.90
26103;DHT22;69760;49.380;8.998;2023-11-21T10:46:54;11.70;99.90
26103;DHT22;69760;49.380;8.998;2023-11-21T10:49:25;11.80;99.90
26103;DHT22;69760;49.380;8.998;2023-11-21T10:51:55;11.80;99.90
26103;DHT22;69760;49.380;8.998;2023-11-21T10:54:22;11.90;99.90
26103;DHT22;69760;49.380;8.998;2023-11-21T10:56:49;11.70;99.90
26103;DHT22;69760;49.380;8.998;2023-11-21T10:59:17;11.80;99.90
26103;DHT22;69760;49.380;8.998;2023-11-21T11:01:45;11.80;99.90
26103;DHT22;69760;49.380;8.998;2023-11-21T11:04:14;11.70;99.90
26103;DHT22;69760;49.380;8.998;2023-11-21T11:06:48;11.60;99.90
26103;DHT22;69760;49.380;8.998;2023-11-21T11:09:17;11.60;99.90
26103;DHT22;69760;49.380;8.998;2023-11-21T11:11:43;11.50;99.90
26103;DHT22;69760;49.380;8.998;2023-11-21T11:14:13;11.50;99.90
26103;DHT22;69760;49.380;8.998;2023-11-21T11:16:40;11.40;99.90
26103;DHT22;69760;49.380;8.998;2023-11-21T11:19:09;11.40;99.90
26103;DHT22;69760;49.380;8.998;2023-11-21T11:27:30;11.50;99.90
26103;DHT22;69760;49.380;8.998;2023-11-21T11:32:48;11.60;99.90
26103;DHT22;69760;49.380;8.998;2023-11-21T11:35:46;11.70;99.90
26103;DHT22;69760;49.380;8.998;2023-11-21T11:38:16;11.80;99.90
26103;DHT22;69760;49.380;8.998;2023-11-21T11:40:46;11.90;99.90
26103;DHT22;69760;49.380;8.998;2023-11-21T11:43:12;11.90;99.90
26103;DHT22;69760;49.380;8.998;2023-11-21T11:45:38;11.90;99.90
26103;DHT22;69760;49.380;8.998;2023-11-21T11:48:08;12.00;99.90
26103;DHT22;69760;49.380;8.998;2023-11-21T11:50:33;12.10;99.90
26103;DHT22;69760;49.380;8.998;2023-11-21T11:53:15;12.20;99.90
26103;DHT22;69760;49.380;8.998;2023-11-21T11:55:41;12.20;99.90
26103;DHT22;69760;49.380;8.998;2023-11-21T11:58:07;12.30;99.90
26103;DHT22;69760;49.380;8.998;2023-11-21T12:00:34;12.40;99.90
26103;DHT22;69760;49.380;8.998;2023-11-21T12:03:03;12.50;99.90
26103;DHT22;69760;49.380;8.998;2023-11-21T12:05:33;12.60;99.90
26103;DHT22;69760;49.380;8.998;2023-11-21T12:08:02;12.70;99.90
26103;DHT22;69760;49.380;8.998;2023-11-21T12:10:33;12.80;99.90
26103;DHT22;69760;49.380;8.998;2023-11-21T12:13:10;12.80;99.90
26103;DHT22;69760;49.380;8.998;2023-11-21T12:15:38;12.80;99.90
26103;DHT22;69760;49.380;8.998;2023-11-21T12:18:06;12.70;99.90
26103;DHT22;69760;49.380;8.998;2023-11-21T12:20:32;12.70;99.90
26103;DHT22;69760;49.380;8.998;2023-11-21T12:23:04;12.50;99.90
26103;DHT22;69760;49.380;8.998;2023-11-21T12:25:31;12.50;99.90
26103;DHT22;69760;49.380;8.998;2023-11-21T12:28:02;12.50;99.90
26103;DHT22;69760;49.380;8.998;2023-11-21T12:30:30;12.40;99.90
26103;DHT22;69760;49.380;8.998;2023-11-21T12:33:01;12.30;99.90
26103;DHT22;69760;49.380;8.998;2023-11-21T12:35:30;12.20;99.90
26103;DHT22;69760;49.380;8.998;2023-11-21T12:37:56;12.10;99.90
26103;DHT22;69760;49.380;8.998;2023-11-21T12:40:22;12.00;99.90
26103;DHT22;69760;49.380;8.998;2023-11-21T12:42:54;11.90;99.90
26103;DHT22;69760;49.380;8.998;2023-11-21T12:45:28;11.90;99.90
26103;DHT22;69760;49.380;8.998;2023-11-21T12:48:02;11.90;99.90
26103;DHT22;69760;49.380;8.998;2023-11-21T12:50:33;11.90;99.90
26103;DHT22;69760;49.380;8.998;2023-11-21T12:53:05;11.90;99.90
26103;DHT22;69760;49.380;8.998;2023-11-21T12:55:34;12.00;99.90
26103;DHT22;69760;49.380;8.998;2023-11-21T12:58:04;12.00;99.90
26103;DHT22;69760;49.380;8.998;2023-11-21T13:00:47;11.90;99.90
26103;DHT22;69760;49.380;8.998;2023-11-21T13:03:16;11.90;99.90
26103;DHT22;69760;49.380;8.998;2023-11-21T13:05:44;11.90;99.90
26103;DHT22;69760;49.380;8.998;2023-11-21T13:08:11;12.00;99.90
26103;DHT22;69760;49.380;8.998;2023-11-21T13:10:45;12.00;99.90
26103;DHT22;69760;49.380;8.998;2023-11-21T13:13:13;11.90;99.90
26103;DHT22;69760;49.380;8.998;2023-11-21T13:15:49;11.90;99.90
26103;DHT22;69760;49.380;8.998;2023-11-21T13:18:16;12.00;99.90
26103;DHT22;69760;49.380;8.998;2023-11-21T13:20:42;12.00;99.90
26103;DHT22;69760;49.380;8.998;2023-11-21T13:23:10;12.00;99.90
26103;DHT22;69760;49.380;8.998;2023-11-21T13:25:39;12.00;99.90
26103;DHT22;69760;49.380;8.998;2023-11-21T13:28:06;12.00;99.90
26103;DHT22;69760;49.380;8.998;2023-11-21T13:30:32;12.10;99.90
26103;DHT22;69760;49.380;8.998;2023-11-21T13:33:02;12.10;99.90
26103;DHT22;69760;49.380;8.998;2023-11-21T13:35:32;12.10;99.90
26103;DHT22;69760;49.380;8.998;2023-11-21T13:38:05;12.20;99.90
26103;DHT22;69760;49.380;8.998;2023-11-21T13:40:32;12.40;99.90
26103;DHT22;69760;49.380;8.998;2023-11-21T13:42:59;12.60;99.90
26103;DHT22;69760;49.380;8.998;2023-11-21T13:45:28;13.10;99.90
26103;DHT22;69760;49.380;8.998;2023-11-21T13:47:55;14.20;99.90
26103;DHT22;69760;49.380;8.998;2023-11-21T13:50:27;16.10;99.90
26103;DHT22;69760;49.380;8.998;2023-11-21T13:52:59;16.90;99.90
26103;DHT22;69760;49.380;8.998;2023-11-21T13:55:30;16.90;99.90
26103;DHT22;69760;49.380;8.998;2023-11-21T13:57:55;17.10;99.20
26103;DHT22;69760;49.380;8.998;2023-11-21T14:00:21;17.00;98.70
26103;DHT22;69760;49.380;8.998;2023-11-21T14:03:05;16.80;99.40
26103;DHT22;69760;49.380;8.998;2023-11-21T14:05:36;17.50;99.20
26103;DHT22;69760;49.380;8.998;2023-11-21T14:08:01;19.10;95.70
26103;DHT22;69760;49.380;8.998;2023-11-21T14:10:31;20.10;92.80
26103;DHT22;69760;49.380;8.998;2023-11-21T14:13:08;20.10;90.90
26103;DHT22;69760;49.380;8.998;2023-11-21T14:15:36;19.40;90.80
26103;DHT22;69760;49.380;8.998;2023-11-21T14:18:07;18.50;91.40
26103;DHT22;69760;49.380;8.998;2023-11-21T14:20:36;17.70;93.20
26103;DHT22;69760;49.380;8.998;2023-11-21T14:23:03;17.00;94.40
26103;DHT22;69760;49.380;8.998;2023-11-21T14:25:29;16.40;95.70
26103;DHT22;69760;49.380;8.998;2023-11-21T14:27:55;15.90;96.90
26103;DHT22;69760;49.380;8.998;2023-11-21T14:30:22;15.30;98.10
26103;DHT22;69760;49.380;8.998;2023-11-21T14:32:48;14.70;98.60
26103;DHT22;69760;49.380;8.998;2023-11-21T14:35:15;14.10;99.20
26103;DHT22;69760;49.380;8.998;2023-11-21T14:37:41;13.70;99.90
26103;DHT22;69760;49.380;8.998;2023-11-21T14:40:07;13.30;99.90
26103;DHT22;69760;49.380;8.998;2023-11-21T14:42:34;13.00;99.90
26103;DHT22;69760;49.380;8.998;2023-11-21T14:45:03;12.60;99.90
26103;DHT22;69760;49.380;8.998;2023-11-21T14:47:32;12.30;99.90
26103;DHT22;69760;49.380;8.998;2023-11-21T14:50:02;12.10;99.90
26103;DHT22;69760;49.380;8.998;2023-11-21T14:52:48;12.00;99.90
26103;DHT22;69760;49.380;8.998;2023-11-21T14:55:24;11.90;99.90
26103;DHT22;69760;49.380;8.998;2023-11-21T14:57:50;11.90;99.90
26103;DHT22;69760;49.380;8.998;2023-11-21T15:00:17;11.90;99.90
26103;DHT22;69760;49.380;8.998;2023-11-21T15:03:09;11.90;99.90
26103;DHT22;69760;49.380;8.998;2023-11-21T15:05:35;11.90;99.90
26103;DHT22;69760;49.380;8.998;2023-11-21T15:08:01;11.90;99.90
26103;DHT22;69760;49.380;8.998;2023-11-21T15:10:45;11.90;99.90
26103;DHT22;69760;49.380;8.998;2023-11-21T15:13:13;11.80;99.90
26103;DHT22;69760;49.380;8.998;2023-11-21T15:15:40;11.70;99.90
26103;DHT22;69760;49.380;8.998;2023-11-21T15:18:06;11.50;99.90
26103;DHT22;69760;49.380;8.998;2023-11-21T15:20:32;11.50;99.90
26103;DHT22;69760;49.380;8.998;2023-11-21T15:22:58;11.40;99.90
26103;DHT22;69760;49.380;8.998;2023-11-21T15:25:23;11.30;99.90
26103;DHT22;69760;49.380;8.998;2023-11-21T15:27:49;11.30;99.90
26103;DHT22;69760;49.380;8.998;2023-11-21T15:30:16;11.20;99.90
26103;DHT22;69760;49.380;8.998;2023-11-21T15:32:46;11.20;99.90
26103;DHT22;69760;49.380;8.998;2023-11-21T15:35:12;11.20;99.90
26103;DHT22;69760;49.380;8.998;2023-11-21T15:37:40;11.30;99.90
26103;DHT22;69760;49.380;8.998;2023-11-21T15:40:06;11.20;99.90